This is the latest recevied weather packets stored in our database for station/object N3AVN. If no packets are shown the sender has not sent any weather packets the latest 1 day(s).
| Time | Temp. | Humidity | Pressure | Rain* | Wind** | Luminosity | Snow |
|---|---|---|---|---|---|---|---|
| 1778021983 | 21.67° C | 58% | 1005.7 hPa | 0 mm | 0.89 m/s, 85° | 23 W/m² | - |
| 1778021680 | 21.67° C | 58% | 1005.9 hPa | 0 mm | 0.89 m/s, 199° | 29 W/m² | - |
| 1778021376 | 21.67° C | 57% | 1005.7 hPa | 0 mm | 2.24 m/s, 77° | 37 W/m² | - |
| 1778021073 | 22.22° C | 57% | 1005.8 hPa | 0 mm | 0.89 m/s, 96° | 43 W/m² | - |
| 1778020770 | 22.22° C | 56% | 1005.9 hPa | 0 mm | 2.24 m/s, 94° | 48 W/m² | - |
| 1778020467 | 22.22° C | 56% | 1005.6 hPa | 0 mm | 0 m/s | 54 W/m² | - |
| 1778020163 | 22.22° C | 56% | 1005.7 hPa | 0 mm | 2.24 m/s, 242° | 55 W/m² | - |
| 1778019860 | 22.22° C | 55% | 1005.6 hPa | 0 mm | 1.34 m/s, 209° | 54 W/m² | - |
| 1778019556 | 22.22° C | 55% | 1005.7 hPa | 0 mm | 0 m/s | 53 W/m² | - |
| 1778019253 | 22.22° C | 55% | 1005.6 hPa | 0 mm | 1.79 m/s, 213° | 51 W/m² | - |
| 1778018950 | 22.78° C | 54% | 1005.6 hPa | 0 mm | 2.24 m/s, 135° | 44 W/m² | - |
| 1778018647 | 22.78° C | 54% | 1005.4 hPa | 0 mm | 3.13 m/s, 152° | 45 W/m² | - |
| 1778018345 | 23.33° C | 53% | 1005.2 hPa | 0 mm | 0.89 m/s, 127° | 54 W/m² | - |
| 1778018042 | 23.33° C | 52% | 1005.5 hPa | 0 mm | 0.89 m/s, 235° | 57 W/m² | - |
| 1778017740 | 23.33° C | 52% | 1005.4 hPa | 0 mm | 4.47 m/s, 203° | 67 W/m² | - |
| 1778017438 | 23.89° C | 52% | 1005.6 hPa | 0 mm | 0.89 m/s, 90° | 70 W/m² | - |
| 1778017135 | 23.89° C | 51% | 1005.5 hPa | 0 mm | 0 m/s | 76 W/m² | - |
| 1778016832 | 24.44° C | 50% | 1005.5 hPa | 0 mm | 0.89 m/s, 85° | 83 W/m² | - |
| 1778016528 | 25° C | 49% | 1005.4 hPa | 0 mm | 0.45 m/s, 186° | 92 W/m² | - |
| 1778016225 | 25° C | 49% | 1005.5 hPa | 0 mm | 2.24 m/s, 245° | 103 W/m² | - |
| 1778015921 | 24.44° C | 49% | 1005.4 hPa | 0 mm | 1.79 m/s, 200° | 113 W/m² | - |
| 1778015619 | 24.44° C | 50% | 1005.3 hPa | 0 mm | 0.89 m/s, 217° | 126 W/m² | - |
| 1778015316 | 24.44° C | 50% | 1005.3 hPa | 0 mm | 2.24 m/s, 74° | 180 W/m² | - |
| 1778015013 | 24.44° C | 50% | 1005.5 hPa | 0 mm | 3.13 m/s, 133° | 138 W/m² | - |
| 1778014709 | 25° C | 49% | 1005.3 hPa | 0 mm | 0.89 m/s, 270° | 207 W/m² | - |
* Rain latest hour (hover to see other rain measurements)
** Current wind speed in m/s (hover to see current wind gust speed)